Time;durP1;ratioP1;P1;durP2;ratioP2;P2;SDS_P1;SDS_P2;PMS_P1;PMS_P2;Temp;Humidity;BMP_temperature;BMP_pressure;BME280_temperature;BME280_humidity;BME280_pressure;Samples;Min_cycle;Max_cycle;Signal;HPM_P1;HPM_P2
2023/04/06 00:02:08;;;;;;;7.78;5.18;;;;;;;;;;4998840;28;20034;-67
2023/04/06 00:04:33;;;;;;;7.47;5.70;;;;;;;;;;4990560;28;20583;-66
2023/04/06 00:06:59;;;;;;;7.85;5.13;;;;;;;;;;4998454;28;20026;-65
2023/04/06 00:09:25;;;;;;;6.45;4.85;;;;;;;;;;4994495;28;20026;-66
2023/04/06 00:11:50;;;;;;;8.07;5.00;;;;;;;;;;4989545;28;20041;-66
2023/04/06 00:14:17;;;;;;;7.80;5.10;;;;;;;;;;4991326;28;20038;-65
2023/04/06 00:16:43;;;;;;;5.65;4.50;;;;;;;;;;4996103;28;20124;-66
2023/04/06 00:19:08;;;;;;;9.55;5.28;;;;;;;;;;4995896;28;20026;-66
2023/04/06 00:21:34;;;;;;;8.57;4.82;;;;;;;;;;4995461;28;20026;-66
2023/04/06 00:24:00;;;;;;;6.28;4.97;;;;;;;;;;4995531;28;20086;-66
2023/04/06 00:26:25;;;;;;;5.82;4.82;;;;;;;;;;4983754;28;20019;-65
2023/04/06 00:28:54;;;;;;;8.18;5.10;;;;;;;;;;4994013;28;20034;-66
2023/04/06 00:31:20;;;;;;;6.70;4.50;;;;;;;;;;4990706;28;20392;-66
2023/04/06 00:33:45;;;;;;;6.22;4.65;;;;;;;;;;4993656;28;20177;-66
2023/04/06 00:36:11;;;;;;;6.18;4.55;;;;;;;;;;4990803;28;20555;-66
2023/04/06 00:38:37;;;;;;;7.63;5.10;;;;;;;;;;4993613;28;20076;-66
2023/04/06 00:41:04;;;;;;;6.53;4.60;;;;;;;;;;4995025;28;20105;-66
2023/04/06 00:43:30;;;;;;;6.68;4.80;;;;;;;;;;4984294;28;20039;-66
2023/04/06 00:45:55;;;;;;;5.45;4.32;;;;;;;;;;4993872;28;20018;-67
2023/04/06 00:48:21;;;;;;;5.78;4.63;;;;;;;;;;4990348;28;20038;-66
2023/04/06 00:50:47;;;;;;;6.40;4.90;;;;;;;;;;4993241;28;20014;-66
2023/04/06 00:53:13;;;;;;;6.97;5.05;;;;;;;;;;4991031;28;20488;-66
2023/04/06 00:55:39;;;;;;;6.80;5.35;;;;;;;;;;4992211;28;20112;-66
2023/04/06 00:58:06;;;;;;;7.30;4.63;;;;;;;;;;4990410;28;20118;-66
2023/04/06 01:00:39;;;;;;;;;;;;;;;;;;4983087;28;20049;-66
2023/04/06 01:03:08;;;;;;;7.32;4.93;;;;;;;;;;4990359;28;19918;-67
2023/04/06 01:05:40;;;;;;;7.13;5.32;;;;;;;;;;4992025;28;20030;-66
2023/04/06 01:08:11;;;;;;;7.10;5.85;;;;;;;;;;4993142;28;20550;-66
2023/04/06 01:10:37;;;;;;;7.38;5.93;;;;;;;;;;4992275;28;20135;-66
2023/04/06 01:13:12;;;;;;;8.85;5.47;;;;;;;;;;4992481;28;20488;-67
2023/04/06 01:15:47;;;;;;;7.82;5.63;;;;;;;;;;4994818;28;20045;-66
2023/04/06 01:18:18;;;;;;;9.35;5.72;;;;;;;;;;4993495;28;20404;-66
2023/04/06 01:20:55;;;;;;;7.00;5.05;;;;;;;;;;4993159;28;20030;-66
2023/04/06 01:23:24;;;;;;;7.32;5.68;;;;;;;;;;4993219;28;20035;-66
2023/04/06 01:25:50;;;;;;;7.78;6.38;;;;;;;;;;4993393;28;20081;-68
2023/04/06 01:28:16;;;;;;;7.88;6.03;;;;;;;;;;4993232;28;20034;-66
2023/04/06 01:30:57;;;;;;;10.32;6.57;;;;;;;;;;4993078;28;20117;-66
2023/04/06 01:33:52;;;;;;;7.68;6.00;;;;;;;;;;4990904;28;20037;-66
2023/04/06 01:36:22;;;;;;;7.53;5.80;;;;;;;;;;4988668;28;20031;-68
2023/04/06 01:38:55;;;;;;;8.25;6.57;;;;;;;;;;4985369;28;20118;-66
2023/04/06 01:41:29;;;;;;;10.15;6.78;;;;;;;;;;4993985;28;20497;-66
2023/04/06 01:43:55;;;;;;;10.77;6.82;;;;;;;;;;4993043;28;20041;-66
2023/04/06 01:46:23;;;;;;;9.45;7.25;;;;;;;;;;4977284;28;20113;-66
2023/04/06 01:48:50;;;;;;;11.45;7.57;;;;;;;;;;4993099;28;20042;-66
2023/04/06 01:51:37;;;;;;;11.40;7.10;;;;;;;;;;4992727;28;20022;-65
2023/04/06 01:54:06;;;;;;;12.10;7.28;;;;;;;;;;4989316;28;20488;-68
2023/04/06 01:57:03;;;;;;;12.35;6.90;;;;;;;;;;4986059;28;20484;-67
2023/04/06 01:59:52;;;;;;;11.30;7.43;;;;;;;;;;4990101;28;20042;-67
2023/04/06 02:02:41;;;;;;;9.10;7.20;;;;;;;;;;4992125;28;20074;-67
2023/04/06 02:05:14;;;;;;;12.10;8.15;;;;;;;;;;5002869;28;20031;-67
2023/04/06 02:07:41;;;;;;;13.63;7.97;;;;;;;;;;4984455;28;20077;-67
2023/04/06 02:10:12;;;;;;;11.60;8.20;;;;;;;;;;4992202;28;20065;-67
2023/04/06 02:12:38;;;;;;;12.25;8.60;;;;;;;;;;4992361;28;20030;-67
2023/04/06 02:15:08;;;;;;;11.63;8.45;;;;;;;;;;4992316;28;20030;-68
2023/04/06 02:17:33;;;;;;;11.95;8.77;;;;;;;;;;4992246;28;20030;-67
2023/04/06 02:19:59;;;;;;;10.40;8.07;;;;;;;;;;4992009;28;20030;-67
2023/04/06 02:22:25;;;;;;;11.32;8.02;;;;;;;;;;4989468;28;20033;-67
2023/04/06 02:24:51;;;;;;;12.57;8.73;;;;;;;;;;4993235;28;20033;-67
2023/04/06 02:27:16;;;;;;;11.38;8.23;;;;;;;;;;4991978;28;20034;-67
2023/04/06 02:29:46;;;;;;;12.18;8.55;;;;;;;;;;4991576;28;20081;-67
2023/04/06 02:32:13;;;;;;;10.30;8.23;;;;;;;;;;4991735;28;20038;-67
2023/04/06 02:34:39;;;;;;;12.93;8.43;;;;;;;;;;4991997;28;20507;-67
2023/04/06 02:37:05;;;;;;;10.90;7.78;;;;;;;;;;4991887;28;20030;-67
2023/04/06 02:39:30;;;;;;;11.68;8.70;;;;;;;;;;4992048;28;20088;-67
2023/04/06 02:41:57;;;;;;;12.45;9.27;;;;;;;;;;4991700;28;20129;-67
2023/04/06 02:44:25;;;;;;;12.73;9.15;;;;;;;;;;4992105;28;20568;-67
2023/04/06 02:46:50;;;;;;;13.25;8.75;;;;;;;;;;4991608;28;20034;-67
2023/04/06 02:49:16;;;;;;;12.27;8.80;;;;;;;;;;4991775;28;20457;-67
2023/04/06 02:51:43;;;;;;;12.02;8.63;;;;;;;;;;4974603;28;20026;-67
2023/04/06 02:54:31;;;;;;;13.75;8.63;;;;;;;;;;4991574;28;20033;-67
2023/04/06 02:56:58;;;;;;;11.57;8.07;;;;;;;;;;4991540;28;20038;-67
2023/04/06 02:59:32;;;;;;;14.27;8.70;;;;;;;;;;4991485;28;20485;-66
2023/04/06 03:02:07;;;;;;;13.25;8.43;;;;;;;;;;4991115;28;20069;-66
2023/04/06 03:04:34;;;;;;;11.45;8.35;;;;;;;;;;4975265;28;20034;-66
2023/04/06 03:07:02;;;;;;;12.98;8.25;;;;;;;;;;4975209;28;20022;-66
2023/04/06 03:09:36;;;;;;;12.43;8.38;;;;;;;;;;4991362;28;20113;-66
2023/04/06 03:12:02;;;;;;;12.93;9.25;;;;;;;;;;4990115;28;20519;-66
2023/04/06 03:14:39;;;;;;;11.48;7.90;;;;;;;;;;4991336;28;20049;-66
2023/04/06 03:17:05;;;;;;;13.82;8.05;;;;;;;;;;4991068;28;20493;-67
2023/04/06 03:19:30;;;;;;;10.10;7.60;;;;;;;;;;4991328;28;20034;-67
2023/04/06 03:21:59;;;;;;;11.65;7.85;;;;;;;;;;4992177;28;20512;-66
2023/04/06 03:24:25;;;;;;;13.07;8.65;;;;;;;;;;4991087;28;20033;-66
2023/04/06 03:26:51;;;;;;;13.60;9.10;;;;;;;;;;4992369;28;20412;-66
2023/04/06 03:29:17;;;;;;;11.15;7.97;;;;;;;;;;4990400;28;20405;-66
2023/04/06 03:31:43;;;;;;;11.05;8.38;;;;;;;;;;4988479;28;20038;-66
2023/04/06 03:34:22;;;;;;;10.63;8.50;;;;;;;;;;4990825;28;20049;-66
2023/04/06 03:36:48;;;;;;;12.93;9.30;;;;;;;;;;4989504;28;20073;-66
2023/04/06 03:39:14;;;;;;;12.10;8.20;;;;;;;;;;4990562;28;20393;-66
2023/04/06 03:41:43;;;;;;;10.30;7.38;;;;;;;;;;4974605;28;20511;-67
2023/04/06 03:44:29;;;;;;;11.35;7.43;;;;;;;;;;4990763;28;20121;-67
2023/04/06 03:46:55;;;;;;;22.00;8.93;;;;;;;;;;4989436;28;20121;-67
2023/04/06 03:49:21;;;;;;;26.50;9.18;;;;;;;;;;4990308;28;20027;-67
2023/04/06 03:51:50;;;;;;;12.50;8.20;;;;;;;;;;4990322;28;20026;-67
2023/04/06 03:54:15;;;;;;;10.45;7.53;;;;;;;;;;4987657;28;20540;-67
2023/04/06 03:56:42;;;;;;;11.05;6.78;;;;;;;;;;4990190;28;20114;-66
2023/04/06 03:59:07;;;;;;;9.93;7.30;;;;;;;;;;4991785;28;20583;-66
2023/04/06 04:01:33;;;;;;;14.00;7.53;;;;;;;;;;4990377;28;20039;-66
2023/04/06 04:03:59;;;;;;;30.77;9.85;;;;;;;;;;4989442;28;20616;-67
2023/04/06 04:06:25;;;;;;;22.30;9.30;;;;;;;;;;4992052;28;20045;-66
2023/04/06 04:08:51;;;;;;;49.10;11.32;;;;;;;;;;4988046;28;20022;-66
2023/04/06 04:11:17;;;;;;;50.97;10.50;;;;;;;;;;4986683;28;20078;-66
2023/04/06 04:13:45;;;;;;;18.95;8.95;;;;;;;;;;4999626;28;20034;-66
2023/04/06 04:16:13;;;;;;;32.47;9.40;;;;;;;;;;4986923;28;20035;-70
2023/04/06 04:18:38;;;;;;;26.50;11.15;;;;;;;;;;4989652;28;20030;-67
2023/04/06 04:21:05;;;;;;;49.70;12.13;;;;;;;;;;4990622;28;20046;-66
2023/04/06 04:23:31;;;;;;;26.95;9.68;;;;;;;;;;4991194;28;20391;-66
2023/04/06 04:25:57;;;;;;;24.90;10.75;;;;;;;;;;5007196;28;20031;-66
2023/04/06 04:28:23;;;;;;;31.27;9.30;;;;;;;;;;4989283;28;20037;-67
2023/04/06 04:30:51;;;;;;;28.52;11.13;;;;;;;;;;4993326;28;20070;-67
2023/04/06 04:33:16;;;;;;;24.48;9.68;;;;;;;;;;4994873;28;20026;-66
2023/04/06 04:35:43;;;;;;;22.08;10.52;;;;;;;;;;4993714;28;20385;-68
2023/04/06 04:38:13;;;;;;;12.43;8.15;;;;;;;;;;4990088;28;20067;-66
2023/04/06 04:40:41;;;;;;;20.40;9.13;;;;;;;;;;4992794;28;20038;-66
2023/04/06 04:43:09;;;;;;;33.45;10.43;;;;;;;;;;4993274;28;20437;-66
2023/04/06 04:45:35;;;;;;;18.80;8.15;;;;;;;;;;4993089;28;20129;-67
2023/04/06 04:48:11;;;;;;;23.27;8.13;;;;;;;;;;4993067;28;20488;-68
2023/04/06 04:50:49;;;;;;;28.08;9.32;;;;;;;;;;4992867;28;20038;-67
2023/04/06 04:53:17;;;;;;;32.40;10.60;;;;;;;;;;4992971;28;20038;-67
2023/04/06 04:55:43;;;;;;;37.65;10.38;;;;;;;;;;4993381;28;20026;-67
2023/04/06 04:58:15;;;;;;;18.33;8.57;;;;;;;;;;4992991;28;20544;-66
2023/04/06 05:00:54;;;;;;;26.92;10.02;;;;;;;;;;4993122;28;20046;-66
2023/04/06 05:03:25;;;;;;;12.23;7.82;;;;;;;;;;4992557;28;20044;-67
2023/04/06 05:06:13;;;;;;;16.42;8.15;;;;;;;;;;4993151;28;20474;-66
2023/04/06 05:08:40;;;;;;;19.40;8.20;;;;;;;;;;4992617;28;20514;-66
2023/04/06 05:11:07;;;;;;;21.77;8.80;;;;;;;;;;4992114;28;20046;-67
2023/04/06 05:13:37;;;;;;;10.57;7.38;;;;;;;;;;4992352;28;20485;-67
2023/04/06 05:16:09;;;;;;;12.00;7.55;;;;;;;;;;4992312;28;20053;-66
2023/04/06 05:18:35;;;;;;;17.48;8.05;;;;;;;;;;4990575;28;20038;-66
2023/04/06 05:21:02;;;;;;;9.48;7.03;;;;;;;;;;5001442;28;20429;-66
2023/04/06 05:23:37;;;;;;;14.10;7.72;;;;;;;;;;4992593;28;20053;-65
2023/04/06 05:26:04;;;;;;;11.07;7.13;;;;;;;;;;4985918;28;20392;-67
2023/04/06 05:28:31;;;;;;;13.77;8.15;;;;;;;;;;4985689;28;20023;-66
2023/04/06 05:30:57;;;;;;;15.50;8.50;;;;;;;;;;4986490;28;20503;-68
2023/04/06 05:33:24;;;;;;;15.38;8.50;;;;;;;;;;4990906;28;20026;-68
2023/04/06 05:36:07;;;;;;;15.45;8.93;;;;;;;;;;4987442;28;20156;-68
2023/04/06 05:38:36;;;;;;;27.58;9.52;;;;;;;;;;4990504;28;20042;-68
2023/04/06 05:41:11;;;;;;;18.13;8.88;;;;;;;;;;4991813;28;20495;-68
2023/04/06 05:43:39;;;;;;;21.60;8.95;;;;;;;;;;4986646;28;20035;-68
2023/04/06 05:46:04;;;;;;;17.45;9.57;;;;;;;;;;4988953;28;20030;-68
2023/04/06 05:48:30;;;;;;;22.40;9.60;;;;;;;;;;4987025;28;20512;-67
2023/04/06 05:50:56;;;;;;;16.15;9.68;;;;;;;;;;4984419;28;20033;-68
2023/04/06 05:53:29;;;;;;;16.35;10.20;;;;;;;;;;4982716;28;20432;-69
2023/04/06 05:56:02;;;;;;;10.95;7.22;;;;;;;;;;4989869;28;20057;-70
2023/04/06 05:58:28;;;;;;;11.48;7.35;;;;;;;;;;4991537;28;20124;-68
2023/04/06 06:00:59;;;;;;;11.40;6.88;;;;;;;;;;4991531;28;20110;-69
2023/04/06 06:03:30;;;;;;;15.35;7.40;;;;;;;;;;4984666;28;20034;-68
2023/04/06 06:06:03;;;;;;;8.63;6.30;;;;;;;;;;4996581;28;20026;-67
2023/04/06 06:08:36;;;;;;;8.52;6.38;;;;;;;;;;4981557;28;20070;-69
2023/04/06 06:11:06;;;;;;;17.52;9.85;;;;;;;;;;4984376;28;20041;-69
2023/04/06 06:13:32;;;;;;;9.57;6.53;;;;;;;;;;4960761;28;20042;-67
2023/04/06 06:15:59;;;;;;;12.10;7.60;;;;;;;;;;4991140;28;20025;-68
2023/04/06 06:18:25;;;;;;;11.77;6.60;;;;;;;;;;4981682;28;20042;-68
2023/04/06 06:20:53;;;;;;;8.82;6.60;;;;;;;;;;5002879;28;20440;-68
2023/04/06 06:23:19;;;;;;;12.13;6.47;;;;;;;;;;4985040;28;20042;-69
2023/04/06 06:25:46;;;;;;;8.05;6.07;;;;;;;;;;4999574;28;20092;-70
2023/04/06 06:28:12;;;;;;;8.55;6.50;;;;;;;;;;4982464;28;20436;-68
2023/04/06 06:30:39;;;;;;;9.93;6.68;;;;;;;;;;4973255;28;20034;-68
2023/04/06 06:33:05;;;;;;;13.73;6.50;;;;;;;;;;4976118;28;20126;-68
2023/04/06 06:35:31;;;;;;;9.80;6.13;;;;;;;;;;4978931;28;20061;-68
2023/04/06 06:38:00;;;;;;;7.50;5.93;;;;;;;;;;4984488;28;20058;-68
2023/04/06 06:40:27;;;;;;;9.25;6.20;;;;;;;;;;4982516;28;20437;-69
2023/04/06 06:42:54;;;;;;;12.73;6.82;;;;;;;;;;4988584;28;20058;-69
2023/04/06 06:45:45;;;;;;;14.18;6.57;;;;;;;;;;4989183;28;20050;-70
2023/04/06 06:48:12;;;;;;;7.43;4.90;;;;;;;;;;4990910;28;20166;-67
2023/04/06 06:50:39;;;;;;;21.27;8.07;;;;;;;;;;4990666;28;20034;-69
2023/04/06 06:53:05;;;;;;;10.90;5.25;;;;;;;;;;4989541;28;20045;-68
2023/04/06 06:55:31;;;;;;;7.40;4.85;;;;;;;;;;4990625;28;20034;-68
2023/04/06 06:57:57;;;;;;;6.72;5.28;;;;;;;;;;4990259;28;20108;-71
2023/04/06 07:00:23;;;;;;;10.32;5.45;;;;;;;;;;4990338;28;20515;-69
2023/04/06 07:02:50;;;;;;;7.85;5.15;;;;;;;;;;4990573;28;20117;-69
2023/04/06 07:05:16;;;;;;;8.55;5.18;;;;;;;;;;4974312;28;20068;-68
2023/04/06 07:07:42;;;;;;;12.13;5.40;;;;;;;;;;4990516;28;20058;-69
2023/04/06 07:10:10;;;;;;;8.68;5.90;;;;;;;;;;4989829;28;20022;-68
2023/04/06 07:12:37;;;;;;;7.38;5.32;;;;;;;;;;4991438;28;20197;-68
2023/04/06 07:15:04;;;;;;;6.68;4.68;;;;;;;;;;4990270;28;20053;-68
2023/04/06 07:17:30;;;;;;;8.32;4.57;;;;;;;;;;4990158;28;20084;-68
2023/04/06 07:19:56;;;;;;;7.05;5.15;;;;;;;;;;4990174;28;20342;-68
2023/04/06 07:22:22;;;;;;;7.82;4.82;;;;;;;;;;4990287;28;20516;-70
2023/04/06 07:24:48;;;;;;;8.50;4.82;;;;;;;;;;4974367;28;20105;-70
2023/04/06 07:27:14;;;;;;;7.93;5.45;;;;;;;;;;4989912;28;20448;-68
2023/04/06 07:29:41;;;;;;;9.65;5.13;;;;;;;;;;4990980;28;20022;-72
2023/04/06 07:32:08;;;;;;;6.80;5.22;;;;;;;;;;4990706;28;20142;-69
2023/04/06 07:34:34;;;;;;;9.93;5.97;;;;;;;;;;4990692;28;20041;-69
2023/04/06 07:37:00;;;;;;;5.72;4.68;;;;;;;;;;4990404;28;20141;-69
2023/04/06 07:39:26;;;;;;;8.98;5.50;;;;;;;;;;4991364;28;20022;-71
2023/04/06 07:41:53;;;;;;;7.85;5.72;;;;;;;;;;4990764;28;20046;-68
2023/04/06 07:44:19;;;;;;;7.90;5.38;;;;;;;;;;4991504;28;20092;-69
2023/04/06 07:46:46;;;;;;;7.05;5.40;;;;;;;;;;4992632;28;20092;-70
2023/04/06 07:49:12;;;;;;;7.38;5.82;;;;;;;;;;4974375;28;20026;-71
2023/04/06 07:51:39;;;;;;;13.20;6.30;;;;;;;;;;4990132;28;20038;-68
2023/04/06 07:54:05;;;;;;;9.90;5.75;;;;;;;;;;4989765;28;20030;-69
2023/04/06 07:56:31;;;;;;;8.00;5.38;;;;;;;;;;4990883;28;20551;-70
2023/04/06 07:58:57;;;;;;;12.73;5.25;;;;;;;;;;4990478;28;20021;-67
2023/04/06 08:01:24;;;;;;;8.80;5.53;;;;;;;;;;4993234;28;20038;-70
2023/04/06 08:03:50;;;;;;;12.90;6.50;;;;;;;;;;4994780;28;20034;-69
2023/04/06 08:06:16;;;;;;;9.43;5.53;;;;;;;;;;4989623;28;20488;-70
2023/04/06 08:08:42;;;;;;;8.68;6.50;;;;;;;;;;4995063;28;20030;-68
2023/04/06 08:11:09;;;;;;;8.98;6.47;;;;;;;;;;4995100;28;20042;-70
2023/04/06 08:13:35;;;;;;;8.25;5.90;;;;;;;;;;4991205;28;20105;-69
2023/04/06 08:16:01;;;;;;;8.02;5.75;;;;;;;;;;4994832;28;20070;-70
2023/04/06 08:18:28;;;;;;;9.00;6.05;;;;;;;;;;4994223;28;20034;-68
2023/04/06 08:20:55;;;;;;;7.38;5.50;;;;;;;;;;4994343;28;20116;-70
2023/04/06 08:23:20;;;;;;;10.73;6.32;;;;;;;;;;4994750;28;20117;-68
2023/04/06 08:25:46;;;;;;;9.93;5.70;;;;;;;;;;4994256;28;20116;-68
2023/04/06 08:28:12;;;;;;;7.35;5.28;;;;;;;;;;4994395;28;20022;-69
2023/04/06 08:30:42;;;;;;;6.85;5.32;;;;;;;;;;4994443;28;20084;-69
2023/04/06 08:33:09;;;;;;;7.35;5.55;;;;;;;;;;4994452;28;20563;-70
2023/04/06 08:35:35;;;;;;;7.20;5.80;;;;;;;;;;4993609;28;20081;-69
2023/04/06 08:38:00;;;;;;;8.30;5.75;;;;;;;;;;4995099;28;20030;-69
2023/04/06 08:40:27;;;;;;;17.38;6.18;;;;;;;;;;4994260;28;20389;-69
2023/04/06 08:42:55;;;;;;;8.45;6.00;;;;;;;;;;4993830;28;20067;-69
2023/04/06 08:45:22;;;;;;;6.60;5.28;;;;;;;;;;4994633;28;20110;-69
2023/04/06 08:47:54;;;;;;;8.50;5.75;;;;;;;;;;4995054;28;20034;-70
2023/04/06 08:50:21;;;;;;;7.60;5.57;;;;;;;;;;4993285;28;20488;-69
2023/04/06 08:52:48;;;;;;;8.05;5.57;;;;;;;;;;5007364;28;20026;-69
2023/04/06 08:55:15;;;;;;;7.75;5.75;;;;;;;;;;4993712;28;20400;-68
2023/04/06 08:57:42;;;;;;;12.07;7.25;;;;;;;;;;4993468;28;20028;-70
2023/04/06 09:00:11;;;;;;;8.43;6.18;;;;;;;;;;4978593;28;20042;-69
2023/04/06 09:02:43;;;;;;;9.32;6.07;;;;;;;;;;4981063;28;20057;-69
2023/04/06 09:05:12;;;;;;;11.38;5.45;;;;;;;;;;4987083;28;20037;-67
2023/04/06 09:07:38;;;;;;;6.68;5.35;;;;;;;;;;4975956;28;20065;-68
2023/04/06 09:10:05;;;;;;;9.52;6.20;;;;;;;;;;4980501;28;20041;-69
2023/04/06 09:12:32;;;;;;;7.78;6.10;;;;;;;;;;4980648;28;20030;-70
2023/04/06 09:15:00;;;;;;;8.32;6.10;;;;;;;;;;4980696;28;20041;-67
2023/04/06 09:17:27;;;;;;;13.77;6.18;;;;;;;;;;4979755;28;20033;-69
2023/04/06 09:19:53;;;;;;;9.00;6.20;;;;;;;;;;4974596;28;20556;-71
2023/04/06 09:22:19;;;;;;;9.38;6.57;;;;;;;;;;4986003;28;20026;-70
2023/04/06 09:24:51;;;;;;;8.95;6.35;;;;;;;;;;4985379;28;20037;-68
2023/04/06 09:27:17;;;;;;;7.75;5.97;;;;;;;;;;4989077;28;20145;-69
2023/04/06 09:29:44;;;;;;;8.40;6.10;;;;;;;;;;4992283;28;20056;-69
2023/04/06 09:32:11;;;;;;;9.18;6.45;;;;;;;;;;4986895;28;20121;-69
2023/04/06 09:34:38;;;;;;;10.02;6.75;;;;;;;;;;5011286;28;20046;-69
2023/04/06 09:37:17;;;;;;;12.13;7.10;;;;;;;;;;4987281;28;20496;-69
2023/04/06 09:39:44;;;;;;;7.55;6.05;;;;;;;;;;4987096;28;20053;-70
2023/04/06 09:42:11;;;;;;;8.68;5.65;;;;;;;;;;4984419;28;20069;-69
2023/04/06 09:44:37;;;;;;;11.18;6.15;;;;;;;;;;4986783;28;20053;-70
2023/04/06 09:47:07;;;;;;;12.70;6.32;;;;;;;;;;4990410;28;20034;-70
2023/04/06 09:49:34;;;;;;;9.07;6.18;;;;;;;;;;4982877;28;20038;-69
2023/04/06 09:52:03;;;;;;;7.53;5.70;;;;;;;;;;4978031;28;20118;-69
2023/04/06 09:54:30;;;;;;;8.45;5.50;;;;;;;;;;4983411;28;20552;-69
2023/04/06 09:57:14;;;;;;;7.50;5.53;;;;;;;;;;4982378;28;20030;-68
2023/04/06 10:00:03;;;;;;;11.27;6.03;;;;;;;;;;4989764;28;20038;-68
2023/04/06 10:02:52;;;;;;;8.45;6.25;;;;;;;;;;4984160;28;20038;-69
2023/04/06 10:05:26;;;;;;;9.45;7.03;;;;;;;;;;4977570;28;20035;-68
2023/04/06 10:07:55;;;;;;;10.57;7.70;;;;;;;;;;4981372;28;20377;-68
2023/04/06 10:10:22;;;;;;;11.52;7.13;;;;;;;;;;4983086;28;20377;-69
2023/04/06 10:12:49;;;;;;;10.25;7.07;;;;;;;;;;4986018;28;20034;-69
2023/04/06 10:15:15;;;;;;;12.07;7.55;;;;;;;;;;4985162;28;20049;-69
2023/04/06 10:17:41;;;;;;;11.57;7.68;;;;;;;;;;4986187;28;20076;-69
2023/04/06 10:20:12;;;;;;;12.43;8.18;;;;;;;;;;4988189;28;20054;-70
2023/04/06 10:22:52;;;;;;;11.45;8.15;;;;;;;;;;4980243;28;20043;-69
2023/04/06 10:25:27;;;;;;;9.95;7.40;;;;;;;;;;4983313;28;20065;-67
2023/04/06 10:28:04;;;;;;;12.10;8.82;;;;;;;;;;4982813;28;20027;-69
2023/04/06 10:30:30;;;;;;;11.75;7.90;;;;;;;;;;4977795;28;20477;-68
2023/04/06 10:32:56;;;;;;;10.68;7.90;;;;;;;;;;4996349;28;20025;-69
2023/04/06 10:35:23;;;;;;;16.50;7.85;;;;;;;;;;4985906;28;20469;-70
2023/04/06 10:38:00;;;;;;;11.27;7.50;;;;;;;;;;4980872;28;20030;-69
2023/04/06 10:40:26;;;;;;;10.85;7.80;;;;;;;;;;4980872;28;20084;-68
2023/04/06 10:42:54;;;;;;;11.15;7.50;;;;;;;;;;4976158;28;20074;-70
2023/04/06 10:45:30;;;;;;;9.23;7.13;;;;;;;;;;4986295;28;20038;-70
2023/04/06 10:47:56;;;;;;;13.70;9.13;;;;;;;;;;4982523;28;20037;-68
2023/04/06 10:50:23;;;;;;;10.73;7.75;;;;;;;;;;4975455;28;20177;-69
2023/04/06 10:53:00;;;;;;;11.90;7.35;;;;;;;;;;4981515;28;20042;-69
2023/04/06 10:55:30;;;;;;;9.43;6.50;;;;;;;;;;4976672;28;20052;-68
2023/04/06 10:57:56;;;;;;;10.32;7.22;;;;;;;;;;4981769;28;20043;-69
2023/04/06 11:00:22;;;;;;;11.02;7.10;;;;;;;;;;4982176;28;20023;-68
2023/04/06 11:02:48;;;;;;;8.68;6.00;;;;;;;;;;4986829;28;20049;-70
2023/04/06 11:05:14;;;;;;;8.35;5.05;;;;;;;;;;4981872;28;20022;-70
2023/04/06 11:07:41;;;;;;;6.43;4.65;;;;;;;;;;4989740;28;20531;-69
2023/04/06 11:10:08;;;;;;;4.82;3.65;;;;;;;;;;4982936;28;20030;-69
2023/04/06 11:12:35;;;;;;;7.53;4.20;;;;;;;;;;4982198;28;20030;-69
2023/04/06 11:15:05;;;;;;;10.48;6.53;;;;;;;;;;4985369;28;20029;-68
2023/04/06 11:17:34;;;;;;;7.07;4.70;;;;;;;;;;4983092;28;20050;-68
2023/04/06 11:20:00;;;;;;;6.97;4.70;;;;;;;;;;4986256;28;20030;-70
2023/04/06 11:22:26;;;;;;;6.40;4.68;;;;;;;;;;4987567;28;20266;-68
2023/04/06 11:24:52;;;;;;;8.73;5.35;;;;;;;;;;4986488;28;20030;-68
2023/04/06 11:27:20;;;;;;;9.55;4.75;;;;;;;;;;4987563;28;20041;-69
2023/04/06 11:29:46;;;;;;;10.23;5.22;;;;;;;;;;4986639;28;20033;-69
2023/04/06 11:32:21;;;;;;;7.78;4.93;;;;;;;;;;5002890;28;20425;-69
2023/04/06 11:34:47;;;;;;;10.65;5.90;;;;;;;;;;4996574;28;20034;-68
2023/04/06 11:37:14;;;;;;;7.75;5.53;;;;;;;;;;4991676;28;20057;-68
2023/04/06 11:39:51;;;;;;;8.63;6.07;;;;;;;;;;4990892;28;20112;-67
2023/04/06 11:42:29;;;;;;;8.63;5.80;;;;;;;;;;4991716;28;20415;-70
2023/04/06 11:44:58;;;;;;;7.78;5.55;;;;;;;;;;4988765;28;20045;-69
2023/04/06 11:47:33;;;;;;;9.02;5.95;;;;;;;;;;4990663;28;20425;-68
2023/04/06 11:50:12;;;;;;;21.42;12.50;;;;;;;;;;4990298;28;20045;-68
2023/04/06 11:52:42;;;;;;;28.75;16.05;;;;;;;;;;4991200;28;20113;-69
2023/04/06 11:55:16;;;;;;;15.00;9.25;;;;;;;;;;4993307;28;20033;-70
2023/04/06 11:57:43;;;;;;;19.10;11.38;;;;;;;;;;4990809;28;20042;-69
2023/04/06 12:00:11;;;;;;;13.07;8.07;;;;;;;;;;4989904;28;20479;-69
2023/04/06 12:02:37;;;;;;;5.35;4.35;;;;;;;;;;4987238;28;20042;-69
2023/04/06 12:05:05;;;;;;;6.85;4.53;;;;;;;;;;4991985;28;20109;-69
2023/04/06 12:07:31;;;;;;;6.43;4.75;;;;;;;;;;4990696;28;21171;-68
2023/04/06 12:09:59;;;;;;;6.75;4.75;;;;;;;;;;4992009;28;20471;-68
2023/04/06 12:12:25;;;;;;;6.93;4.50;;;;;;;;;;4991833;28;20022;-68
2023/04/06 12:14:51;;;;;;;6.90;4.70;;;;;;;;;;4990552;28;20350;-68
2023/04/06 12:17:19;;;;;;;7.85;4.35;;;;;;;;;;4993574;28;20040;-69
2023/04/06 12:19:45;;;;;;;14.30;5.63;;;;;;;;;;4990159;28;20027;-69
2023/04/06 12:22:10;;;;;;;7.32;4.70;;;;;;;;;;4989888;28;20116;-68
2023/04/06 12:24:36;;;;;;;7.50;4.10;;;;;;;;;;4995295;28;20026;-69
2023/04/06 12:27:02;;;;;;;6.43;4.43;;;;;;;;;;4990847;28;20618;-70
2023/04/06 12:29:28;;;;;;;4.65;3.45;;;;;;;;;;4992023;28;20030;-69
2023/04/06 12:31:54;;;;;;;5.07;3.28;;;;;;;;;;4991195;28;20510;-69
2023/04/06 12:34:20;;;;;;;4.97;3.88;;;;;;;;;;4992322;28;20018;-69
2023/04/06 12:36:46;;;;;;;7.15;4.65;;;;;;;;;;4998805;28;20108;-69
2023/04/06 12:39:12;;;;;;;7.78;4.32;;;;;;;;;;4996544;28;20366;-69
2023/04/06 12:41:40;;;;;;;4.80;3.33;;;;;;;;;;4998204;28;20046;-67
2023/04/06 12:44:06;;;;;;;6.18;4.10;;;;;;;;;;4998434;28;20049;-69
2023/04/06 12:46:32;;;;;;;5.80;4.30;;;;;;;;;;4998461;28;20050;-68
2023/04/06 12:48:58;;;;;;;6.18;4.53;;;;;;;;;;5001176;28;20030;-67
2023/04/06 12:51:27;;;;;;;6.07;4.50;;;;;;;;;;5000889;28;20117;-69
2023/04/06 12:53:53;;;;;;;5.65;3.92;;;;;;;;;;4993893;28;20026;-67
2023/04/06 12:56:20;;;;;;;8.25;4.80;;;;;;;;;;4997978;28;20077;-68
2023/04/06 12:58:47;;;;;;;4.97;3.58;;;;;;;;;;4995471;28;20030;-70
2023/04/06 13:01:13;;;;;;;8.25;4.32;;;;;;;;;;4992615;28;20030;-70
2023/04/06 13:03:39;;;;;;;6.88;4.95;;;;;;;;;;4998276;28;20088;-69
2023/04/06 13:06:05;;;;;;;9.90;7.07;;;;;;;;;;4997854;28;20519;-69
2023/04/06 13:08:31;;;;;;;7.82;4.65;;;;;;;;;;4996165;28;20117;-69
2023/04/06 13:10:57;;;;;;;5.03;3.80;;;;;;;;;;5001143;28;20049;-70
2023/04/06 13:13:25;;;;;;;7.28;4.72;;;;;;;;;;5000317;28;20034;-71
2023/04/06 13:15:51;;;;;;;6.35;4.13;;;;;;;;;;4994326;28;20041;-69
2023/04/06 13:18:17;;;;;;;5.38;4.00;;;;;;;;;;4993684;28;20026;-68
2023/04/06 13:20:43;;;;;;;6.07;4.13;;;;;;;;;;4997865;28;20065;-69
2023/04/06 13:23:09;;;;;;;5.70;4.07;;;;;;;;;;4998290;28;20491;-69
2023/04/06 13:25:35;;;;;;;6.38;4.32;;;;;;;;;;4993040;28;20065;-69
2023/04/06 13:28:01;;;;;;;8.18;4.75;;;;;;;;;;4997641;28;20460;-69
2023/04/06 13:30:26;;;;;;;8.80;5.13;;;;;;;;;;4997126;28;20030;-70
2023/04/06 13:32:52;;;;;;;6.30;4.35;;;;;;;;;;4997520;28;20097;-70
2023/04/06 13:35:18;;;;;;;5.65;4.47;;;;;;;;;;4996152;28;20096;-69
2023/04/06 13:37:44;;;;;;;8.45;5.32;;;;;;;;;;5002236;28;20087;-67
2023/04/06 13:40:10;;;;;;;6.93;4.75;;;;;;;;;;4997083;28;20496;-69
2023/04/06 13:42:37;;;;;;;7.22;4.72;;;;;;;;;;4996527;28;20173;-70
2023/04/06 13:45:04;;;;;;;6.72;5.10;;;;;;;;;;4994232;28;20180;-68
2023/04/06 13:47:30;;;;;;;5.72;4.07;;;;;;;;;;4996465;28;20030;-69
2023/04/06 13:49:55;;;;;;;7.05;5.03;;;;;;;;;;4995078;28;20099;-69
2023/04/06 13:52:21;;;;;;;6.18;4.72;;;;;;;;;;4993323;28;20018;-70
2023/04/06 13:54:48;;;;;;;6.15;4.50;;;;;;;;;;4996555;28;20657;-69
2023/04/06 13:57:13;;;;;;;7.30;4.78;;;;;;;;;;4993369;28;20018;-72
2023/04/06 13:59:39;;;;;;;8.30;4.75;;;;;;;;;;4997124;28;20046;-72
2023/04/06 14:02:08;;;;;;;6.38;4.65;;;;;;;;;;4990837;28;20034;-70
2023/04/06 14:04:34;;;;;;;9.48;6.13;;;;;;;;;;4995227;28;20420;-72
2023/04/06 14:07:02;;;;;;;7.43;4.50;;;;;;;;;;4996814;28;20413;-69
2023/04/06 14:09:29;;;;;;;6.15;4.65;;;;;;;;;;4991083;28;20048;-71
2023/04/06 14:11:55;;;;;;;7.35;4.60;;;;;;;;;;4996361;28;20728;-71
2023/04/06 14:14:22;;;;;;;6.40;4.68;;;;;;;;;;4994720;28;20040;-69
2023/04/06 14:16:48;;;;;;;5.30;4.10;;;;;;;;;;4999368;28;20021;-71
2023/04/06 14:19:15;;;;;;;7.15;4.55;;;;;;;;;;4995750;28;20499;-71
2023/04/06 14:21:41;;;;;;;9.50;4.40;;;;;;;;;;4989349;28;20030;-71
2023/04/06 14:24:08;;;;;;;5.63;3.95;;;;;;;;;;4993188;28;20451;-69
2023/04/06 14:26:35;;;;;;;6.25;4.20;;;;;;;;;;4991338;28;20037;-70
2023/04/06 14:29:02;;;;;;;6.68;4.45;;;;;;;;;;4992279;28;20036;-69
2023/04/06 14:31:28;;;;;;;6.90;4.40;;;;;;;;;;4994202;28;20022;-70
2023/04/06 14:33:54;;;;;;;6.63;4.80;;;;;;;;;;4995903;28;20041;-71
2023/04/06 14:36:20;;;;;;;5.82;4.47;;;;;;;;;;4996029;28;20046;-70
2023/04/06 14:38:48;;;;;;;7.72;4.45;;;;;;;;;;4994829;28;20330;-70
2023/04/06 14:41:16;;;;;;;5.20;4.22;;;;;;;;;;4995421;28;20099;-70
2023/04/06 14:43:42;;;;;;;6.70;4.82;;;;;;;;;;4993353;28;20124;-70
2023/04/06 14:46:09;;;;;;;6.75;5.35;;;;;;;;;;4994778;28;20048;-71